createdAt,value
2019-03-11T00:01:23.329Z,99980.53
2019-03-11T00:03:54.575Z,99981.47
2019-03-11T00:06:25.957Z,99983.95
2019-03-11T00:08:57.170Z,99979.64
2019-03-11T00:11:28.316Z,99989.42
2019-03-11T00:13:59.358Z,99984.87
2019-03-11T00:16:30.534Z,99987.64
2019-03-11T00:19:01.870Z,99986.84
2019-03-11T00:21:33.011Z,99967.14
2019-03-11T00:24:04.056Z,99958.77
2019-03-11T00:26:35.110Z,99967.08
2019-03-11T00:29:06.252Z,99973.55
2019-03-11T00:31:37.274Z,99964.75
2019-03-11T00:34:08.299Z,99961.91
2019-03-11T00:36:40.360Z,99957.98
2019-03-11T00:39:11.535Z,99959.02
2019-03-11T00:41:42.652Z,99941.44
2019-03-11T00:44:13.787Z,99943.84
2019-03-11T00:46:44.883Z,99946.00
2019-03-11T00:49:16.027Z,99944.77
2019-03-11T00:51:47.137Z,99938.61
2019-03-11T00:54:18.111Z,99936.28
2019-03-11T00:56:49.143Z,99939.11
2019-03-11T00:59:20.283Z,99941.09
2019-03-11T01:01:52.307Z,99944.95
2019-03-11T01:04:23.615Z,99948.13
2019-03-11T01:06:54.616Z,99954.07
2019-03-11T01:09:25.641Z,99954.98
2019-03-11T01:11:56.707Z,99963.48
2019-03-11T01:14:27.752Z,99955.45
2019-03-11T01:16:58.795Z,99958.81
2019-03-11T01:19:29.877Z,99959.84
2019-03-11T01:22:00.976Z,99949.83
2019-03-11T01:24:32.035Z,99965.08
2019-03-11T01:27:03.124Z,99957.68
2019-03-11T01:29:34.312Z,99955.34
2019-03-11T01:32:05.254Z,99968.71
2019-03-11T01:34:36.299Z,99958.84
2019-03-11T01:37:07.372Z,99966.38
2019-03-11T01:39:38.605Z,99957.20
2019-03-11T01:42:09.860Z,99956.03
2019-03-11T01:44:41.133Z,99950.86
2019-03-11T01:47:12.319Z,99950.80
2019-03-11T01:49:43.414Z,99952.63
2019-03-11T01:52:14.529Z,99954.01
2019-03-11T01:54:45.687Z,99956.08
2019-03-11T01:57:19.665Z,99955.00
2019-03-11T01:59:50.546Z,99953.80
2019-03-11T02:02:21.719Z,99954.16
2019-03-11T02:04:52.792Z,99952.94
2019-03-11T02:07:23.814Z,99956.62
2019-03-11T02:09:55.049Z,99968.85
2019-03-11T02:12:26.118Z,99975.39
2019-03-11T02:14:57.426Z,99972.77
2019-03-11T02:17:28.415Z,99981.54
2019-03-11T02:19:59.471Z,99973.80
2019-03-11T02:22:30.609Z,99973.08
2019-03-11T02:25:01.702Z,99961.31
2019-03-11T02:27:32.855Z,99960.08
2019-03-11T02:30:05.524Z,99960.47
2019-03-11T02:32:36.749Z,99955.10
2019-03-11T02:35:07.894Z,99955.08
2019-03-11T02:37:38.975Z,99946.71
2019-03-11T02:40:14.480Z,99946.77
2019-03-11T02:42:45.748Z,99933.16
2019-03-11T02:45:16.899Z,99920.70
2019-03-11T02:47:47.861Z,99924.25
2019-03-11T02:50:18.880Z,99923.48
2019-03-11T02:52:49.980Z,99907.14
2019-03-11T02:55:21.010Z,99907.22
2019-03-11T02:57:52.074Z,99901.66
2019-03-11T03:00:23.296Z,99899.08
2019-03-11T03:03:14.096Z,99892.36
2019-03-11T03:05:49.311Z,99894.98
2019-03-11T03:08:20.384Z,99885.83
2019-03-11T03:10:51.545Z,99882.98
2019-03-11T03:13:23.613Z,99883.38
2019-03-11T03:15:54.807Z,99869.38
2019-03-11T03:18:25.851Z,99863.87
2019-03-11T03:20:57.031Z,99853.83
2019-03-11T03:23:28.202Z,99850.61
2019-03-11T03:26:02.253Z,99846.23
2019-03-11T03:28:33.203Z,99853.76
2019-03-11T03:31:04.330Z,99858.28
2019-03-11T03:33:35.397Z,99848.31
2019-03-11T03:36:06.561Z,99842.77
2019-03-11T03:38:37.493Z,99839.83
2019-03-11T03:41:08.495Z,99830.81
2019-03-11T03:43:40.783Z,99836.83
2019-03-11T03:46:18.817Z,99838.38
2019-03-11T03:48:46.044Z,99832.05
2019-03-11T03:51:17.177Z,99814.45
2019-03-11T03:53:48.193Z,99804.64
2019-03-11T03:56:19.298Z,99808.58
2019-03-11T03:58:50.354Z,99811.83
2019-03-11T04:01:21.465Z,99808.45
2019-03-11T04:03:52.592Z,99808.69
2019-03-11T04:06:23.721Z,99807.19
2019-03-11T04:08:54.990Z,99794.83
2019-03-11T04:11:25.930Z,99785.55
2019-03-11T04:13:56.987Z,99784.48
2019-03-11T04:16:27.976Z,99780.70
2019-03-11T04:18:59.017Z,99767.97
2019-03-11T04:21:30.332Z,99776.28
2019-03-11T04:24:01.454Z,99763.19
2019-03-11T04:26:32.562Z,99762.11
2019-03-11T04:29:03.554Z,99759.06
2019-03-11T04:31:34.719Z,99754.47
2019-03-11T04:34:05.845Z,99740.91
2019-03-11T04:36:36.905Z,99739.20
2019-03-11T04:39:07.932Z,99738.85
2019-03-11T04:41:38.926Z,99733.87
2019-03-11T04:44:10.109Z,99733.77
2019-03-11T04:46:41.315Z,99734.53
2019-03-11T04:49:12.467Z,99725.85
2019-03-11T04:51:43.518Z,99715.03
2019-03-11T04:54:14.517Z,99711.09
2019-03-11T04:56:45.587Z,99721.83
2019-03-11T04:59:16.500Z,99711.40
2019-03-11T05:01:53.261Z,99719.19
2019-03-11T05:04:24.339Z,99711.86
2019-03-11T05:06:55.375Z,99710.46
2019-03-11T05:09:26.277Z,99707.45
2019-03-11T05:11:58.529Z,99705.43
2019-03-11T05:14:29.575Z,99686.63
2019-03-11T05:17:01.016Z,99687.80
2019-03-11T05:19:32.061Z,99678.93
2019-03-11T05:22:04.189Z,99668.44
2019-03-11T05:24:35.281Z,99677.53
2019-03-11T05:27:06.280Z,99664.67
2019-03-11T05:29:37.292Z,99671.83
2019-03-11T05:32:11.950Z,99667.59
2019-03-11T05:34:44.044Z,99668.77
2019-03-11T05:37:16.933Z,99663.36
2019-03-11T05:39:48.122Z,99659.05
2019-03-11T05:42:19.156Z,99656.04
2019-03-11T05:44:50.631Z,99641.07
2019-03-11T05:47:21.895Z,99647.11
2019-03-11T05:49:53.046Z,99642.83
2019-03-11T05:52:24.435Z,99647.39
2019-03-11T05:54:55.759Z,99636.67
2019-03-11T05:57:26.993Z,99641.26
2019-03-11T05:59:58.140Z,99637.36
2019-03-11T06:02:29.290Z,99625.86
2019-03-11T06:05:02.638Z,99626.03
2019-03-11T06:07:34.065Z,99633.22
2019-03-11T06:10:07.634Z,99626.95
2019-03-11T06:12:38.684Z,99619.47
2019-03-11T06:15:13.917Z,99611.31
2019-03-11T06:17:46.300Z,99606.84
2019-03-11T06:20:31.424Z,99606.29
2019-03-11T06:23:04.103Z,99592.09
2019-03-11T06:25:35.117Z,99590.80
2019-03-11T06:28:06.173Z,99582.98
2019-03-11T06:30:37.501Z,99570.89
2019-03-11T06:33:08.777Z,99571.33
2019-03-11T06:35:40.488Z,99559.30
2019-03-11T06:38:16.777Z,99548.11
2019-03-11T06:40:47.901Z,99547.70
2019-03-11T06:43:19.222Z,99530.03
2019-03-11T06:45:50.382Z,99529.88
2019-03-11T06:48:21.564Z,99535.19
2019-03-11T06:50:52.594Z,99531.76
2019-03-11T06:53:23.750Z,99532.33
2019-03-11T06:55:55.649Z,99519.98
2019-03-11T06:58:26.741Z,99507.14
2019-03-11T07:00:57.770Z,99498.62
2019-03-11T07:03:28.886Z,99488.05
2019-03-11T07:06:00.085Z,99487.70
2019-03-11T07:08:34.642Z,99485.38
2019-03-11T07:11:06.027Z,99490.28
2019-03-11T07:13:37.154Z,99474.42
2019-03-11T07:16:09.636Z,99470.13
2019-03-11T07:18:42.779Z,99472.48
2019-03-11T07:21:15.168Z,99462.29
2019-03-11T07:23:48.668Z,99460.52
2019-03-11T07:26:19.893Z,99453.95
2019-03-11T07:28:52.815Z,99440.34
2019-03-11T07:31:24.267Z,99439.69
2019-03-11T07:33:56.689Z,99443.53
2019-03-11T07:36:27.833Z,99424.63
2019-03-11T07:38:59.702Z,99428.56
2019-03-11T07:41:31.095Z,99430.70
2019-03-11T07:44:02.613Z,99419.53
2019-03-11T07:46:34.499Z,99417.03
2019-03-11T07:49:05.858Z,99403.59
2019-03-11T07:51:36.900Z,99396.25
2019-03-11T07:54:08.115Z,99380.69
2019-03-11T07:56:39.198Z,99367.13
2019-03-11T07:59:10.412Z,99362.62
2019-03-11T08:01:41.380Z,99350.04
2019-03-11T08:04:12.486Z,99346.27
2019-03-11T08:06:52.120Z,99350.55
2019-03-11T08:09:37.057Z,99341.29
2019-03-11T08:15:16.509Z,99324.30
2019-03-11T08:17:47.774Z,99322.55
2019-03-11T08:20:19.846Z,99318.05
2019-03-11T08:22:50.988Z,99315.98
2019-03-11T08:25:23.121Z,99317.45
2019-03-11T08:27:54.554Z,99307.63
2019-03-11T08:30:25.668Z,99330.14
2019-03-11T08:32:57.576Z,99311.30
2019-03-11T08:35:34.611Z,99309.27
2019-03-11T08:38:06.787Z,99300.00
2019-03-11T08:40:38.314Z,99295.20
2019-03-11T08:43:12.650Z,99290.98
2019-03-11T08:45:44.336Z,99288.34
2019-03-11T08:48:15.550Z,99291.27
2019-03-11T08:50:46.618Z,99280.97
2019-03-11T08:53:22.038Z,99278.86
2019-03-11T08:55:53.283Z,99277.25
2019-03-11T08:58:28.378Z,99263.41
2019-03-11T09:00:59.972Z,99264.78
2019-03-11T09:03:33.342Z,99271.28
2019-03-11T09:06:04.838Z,99258.55
2019-03-11T09:08:40.467Z,99256.05
2019-03-11T09:11:11.577Z,99252.30
2019-03-11T09:13:43.611Z,99258.15
2019-03-11T09:16:14.755Z,99250.19
2019-03-11T09:18:46.008Z,99240.48
2019-03-11T09:21:17.312Z,99260.42
2019-03-11T09:23:48.462Z,99246.95
2019-03-11T09:26:19.605Z,99245.55
2019-03-11T09:28:50.656Z,99246.62
2019-03-11T09:31:21.751Z,99249.44
2019-03-11T09:33:52.932Z,99252.50
2019-03-11T09:36:23.992Z,99245.20
2019-03-11T09:38:59.529Z,99248.61
2019-03-11T09:41:30.988Z,99245.41
2019-03-11T09:44:02.060Z,99245.43
2019-03-11T09:46:33.303Z,99249.14
2019-03-11T09:49:04.601Z,99229.33
2019-03-11T09:51:35.692Z,99237.33
2019-03-11T09:54:06.823Z,99234.69
2019-03-11T09:56:43.127Z,99235.33
2019-03-11T09:59:10.901Z,99235.31
2019-03-11T10:01:41.956Z,99236.95
2019-03-11T10:04:13.248Z,99255.97
2019-03-11T10:06:44.604Z,99234.02
2019-03-11T10:09:17.092Z,99233.28
2019-03-11T10:11:48.413Z,99207.05
2019-03-11T10:14:19.560Z,99196.72
2019-03-11T10:16:50.812Z,99201.21
2019-03-11T10:19:21.973Z,99191.48
2019-03-11T10:21:58.504Z,99199.16
2019-03-11T10:24:30.834Z,99210.83
2019-03-11T10:27:11.649Z,99207.34
2019-03-11T10:29:42.748Z,99208.44
2019-03-11T10:32:14.021Z,99221.14
2019-03-11T10:34:45.204Z,99226.53
2019-03-11T10:37:16.726Z,99215.13
2019-03-11T10:39:48.261Z,99217.05
2019-03-11T10:42:19.828Z,99228.89
2019-03-11T10:44:51.060Z,99232.70
2019-03-11T10:47:22.529Z,99217.83
2019-03-11T10:49:55.811Z,99216.93
2019-03-11T10:52:28.584Z,99218.50
2019-03-11T10:55:00.957Z,99211.92
2019-03-11T10:57:32.649Z,99212.76
2019-03-11T11:00:12.061Z,99230.55
2019-03-11T11:02:43.356Z,99215.89
2019-03-11T11:05:17.937Z,99206.64
2019-03-11T11:07:49.800Z,99210.27
2019-03-11T11:10:21.335Z,99204.49
2019-03-11T11:12:54.382Z,99205.45
2019-03-11T11:15:26.895Z,99202.99
2019-03-11T11:17:58.570Z,99200.31
2019-03-11T11:20:29.830Z,99200.40
2019-03-11T11:23:01.176Z,99188.83
2019-03-11T11:25:32.413Z,99190.99
2019-03-11T11:28:05.261Z,99194.53
2019-03-11T11:30:37.046Z,99201.72
2019-03-11T11:33:08.348Z,99197.41
2019-03-11T11:35:39.526Z,99208.63
2019-03-11T11:38:10.737Z,99211.05
2019-03-11T11:40:42.103Z,99192.23
2019-03-11T11:43:13.442Z,99190.70
2019-03-11T11:46:01.612Z,99200.36
2019-03-11T11:48:33.595Z,99197.95
2019-03-11T11:51:04.873Z,99190.12
2019-03-11T11:53:36.893Z,99189.56
2019-03-11T11:56:20.605Z,99199.53
2019-03-11T11:58:54.621Z,99211.05
2019-03-11T12:01:25.947Z,99186.37
2019-03-11T12:03:59.178Z,99218.13
2019-03-11T12:06:58.542Z,99211.16
2019-03-11T12:09:34.596Z,99216.53
2019-03-11T12:12:07.082Z,99215.14
2019-03-11T12:14:38.672Z,99220.38
2019-03-11T12:17:10.618Z,99244.80
2019-03-11T12:19:55.020Z,99230.56
2019-03-11T12:22:30.983Z,99229.78
2019-03-11T12:25:15.091Z,99233.77
2019-03-11T12:28:00.741Z,99245.37
2019-03-11T12:30:37.559Z,99246.34
2019-03-11T12:33:14.993Z,99237.62
2019-03-11T12:35:50.686Z,99245.06
2019-03-11T12:38:22.121Z,99246.38
2019-03-11T12:40:53.806Z,99220.00
2019-03-11T12:43:25.020Z,99218.66
2019-03-11T12:46:01.801Z,99224.68
2019-03-11T12:48:34.081Z,99239.39
2019-03-11T12:51:05.594Z,99240.22
2019-03-11T12:53:36.712Z,99225.41
2019-03-11T12:56:08.107Z,99241.84
2019-03-11T12:58:42.053Z,99229.41
2019-03-11T13:01:13.258Z,99233.55
2019-03-11T13:03:44.372Z,99231.06
2019-03-11T13:09:40.823Z,99251.00
2019-03-11T13:12:17.095Z,99262.92
2019-03-11T13:15:13.043Z,99230.56
2019-03-11T13:17:44.552Z,99226.24
2019-03-11T13:20:21.666Z,99249.54
2019-03-11T13:22:53.096Z,99235.45
2019-03-11T13:25:24.378Z,99240.38
2019-03-11T13:27:55.649Z,99241.41
2019-03-11T13:30:27.202Z,99239.22
2019-03-11T13:32:58.548Z,99248.52
2019-03-11T13:35:29.991Z,99250.61
2019-03-11T13:38:03.407Z,99262.94
2019-03-11T13:40:34.500Z,99262.70
2019-03-11T13:43:05.900Z,99264.18
2019-03-11T13:45:37.021Z,99262.34
2019-03-11T13:48:08.483Z,99317.52
2019-03-11T13:50:39.814Z,99291.55
2019-03-11T13:53:11.036Z,99296.50
2019-03-11T13:55:42.381Z,99290.14
2019-03-11T13:58:17.707Z,99290.98
2019-03-11T14:00:56.814Z,99312.16
2019-03-11T14:03:25.824Z,99296.66
2019-03-11T14:05:56.902Z,99287.66
2019-03-11T14:08:45.222Z,99305.80
2019-03-11T14:11:17.464Z,99328.50
2019-03-11T14:14:00.006Z,99297.59
2019-03-11T14:16:31.279Z,99288.47
2019-03-11T14:19:16.242Z,99276.55
2019-03-11T14:21:48.081Z,99288.81
2019-03-11T14:24:19.404Z,99307.29
2019-03-11T14:26:51.021Z,99310.29
2019-03-11T14:29:24.305Z,99329.04
2019-03-11T14:31:56.212Z,99325.20
2019-03-11T14:34:27.349Z,99295.91
2019-03-11T14:37:01.949Z,99318.11
2019-03-11T14:39:33.425Z,99309.43
2019-03-11T14:42:05.418Z,99322.86
2019-03-11T14:44:36.598Z,99324.97
2019-03-11T14:47:07.679Z,99333.08
2019-03-11T14:49:38.899Z,99337.37
2019-03-11T14:52:10.140Z,99362.98
2019-03-11T14:54:41.713Z,99366.77
2019-03-11T14:57:12.763Z,99423.88
2019-03-11T14:59:44.369Z,99420.80
2019-03-11T15:02:16.753Z,99413.70
2019-03-11T15:04:47.934Z,99408.36
2019-03-11T15:07:21.735Z,99426.71
2019-03-11T15:09:54.638Z,99415.30
2019-03-11T15:12:26.114Z,99443.25
2019-03-11T15:14:57.205Z,99445.59
2019-03-11T15:17:28.351Z,99456.62
2019-03-11T15:19:59.553Z,99460.81
2019-03-11T15:22:32.218Z,99465.15
2019-03-11T15:25:03.740Z,99419.36
2019-03-11T15:27:34.897Z,99521.58
2019-03-11T15:30:18.034Z,99487.75
2019-03-11T15:32:53.662Z,99533.64
2019-03-11T15:35:25.701Z,99502.54
2019-03-11T15:37:56.800Z,99507.13
2019-03-11T15:40:27.861Z,99495.86
2019-03-11T15:42:59.055Z,99540.59
2019-03-11T15:45:38.166Z,99553.37
2019-03-11T15:48:03.368Z,99527.23
2019-03-11T15:50:36.111Z,99575.33
2019-03-11T15:53:07.464Z,99541.70
2019-03-11T15:55:38.656Z,99583.53
2019-03-11T15:58:09.762Z,99565.58
2019-03-11T16:00:40.934Z,99564.05
2019-03-11T16:03:12.213Z,99568.00
2019-03-11T16:05:43.564Z,99568.20
2019-03-11T16:08:14.795Z,99579.63
2019-03-11T16:10:45.933Z,99631.22
2019-03-11T16:13:17.172Z,99615.62
2019-03-11T16:15:48.413Z,99652.84
2019-03-11T16:18:19.810Z,99626.13
2019-03-11T16:20:52.086Z,99664.17
2019-03-11T16:23:23.276Z,99624.52
2019-03-11T16:25:54.503Z,99664.34
2019-03-11T16:28:27.950Z,99648.91
2019-03-11T16:31:04.170Z,99678.39
2019-03-11T16:33:35.321Z,99668.84
2019-03-11T16:36:06.557Z,99706.98
2019-03-11T16:38:37.831Z,99693.20
2019-03-11T16:41:09.000Z,99698.71
2019-03-11T16:43:42.329Z,99722.66
2019-03-11T16:46:15.000Z,99706.41
2019-03-11T16:48:46.078Z,99775.66
2019-03-11T16:51:17.234Z,99736.23
2019-03-11T16:53:48.276Z,99736.47
2019-03-11T16:56:19.390Z,99740.41
2019-03-11T16:58:50.514Z,99755.90
2019-03-11T17:01:21.806Z,99765.00
2019-03-11T17:03:53.019Z,99787.86
2019-03-11T17:06:24.131Z,99773.27
2019-03-11T17:08:55.465Z,99790.50
2019-03-11T17:11:27.728Z,99781.66
2019-03-11T17:13:58.753Z,99794.33
2019-03-11T17:16:29.914Z,99791.23
2019-03-11T17:19:01.138Z,99799.88
2019-03-11T17:21:34.860Z,99781.44
2019-03-11T17:24:06.046Z,99825.73
2019-03-11T17:26:39.070Z,99830.19
2019-03-11T17:29:10.202Z,99822.34
2019-03-11T17:31:41.464Z,99847.45
2019-03-11T17:34:12.581Z,99859.97
2019-03-11T17:36:43.842Z,99864.33
2019-03-11T17:39:15.060Z,99831.09
2019-03-11T17:41:46.340Z,99920.12
2019-03-11T17:44:17.766Z,99892.67
2019-03-11T17:46:48.954Z,99872.51
2019-03-11T17:49:20.019Z,99876.08
2019-03-11T17:51:53.130Z,99876.47
2019-03-11T17:54:24.417Z,99893.16
2019-03-11T17:56:55.719Z,99907.83
2019-03-11T17:59:26.992Z,99890.08
2019-03-11T18:02:02.515Z,99909.23
2019-03-11T18:04:35.250Z,99912.38
2019-03-11T18:07:07.747Z,99927.73
2019-03-11T18:09:38.911Z,99932.44
2019-03-11T18:12:10.156Z,99945.27
2019-03-11T18:14:41.494Z,99955.98
2019-03-11T18:17:12.743Z,99967.41
2019-03-11T18:19:43.959Z,99956.06
2019-03-11T18:22:16.685Z,99955.89
2019-03-11T18:24:47.991Z,99965.88
2019-03-11T18:27:19.198Z,99977.73
2019-03-11T18:29:50.422Z,99978.16
2019-03-11T18:32:23.238Z,99982.14
2019-03-11T18:34:55.468Z,99975.09
2019-03-11T18:37:26.685Z,99994.86
2019-03-11T18:39:57.773Z,99988.51
2019-03-11T18:42:29.034Z,99993.25
2019-03-11T18:45:00.455Z,100029.27
2019-03-11T18:47:31.681Z,100019.23
2019-03-11T18:50:03.001Z,100015.38
2019-03-11T18:52:58.734Z,100013.98
2019-03-11T18:55:30.041Z,100034.67
2019-03-11T18:58:01.526Z,100034.80
2019-03-11T19:00:32.773Z,100036.77
2019-03-11T19:03:03.941Z,100054.73
2019-03-11T19:05:35.161Z,100046.29
2019-03-11T19:08:06.295Z,100042.25
2019-03-11T19:10:37.666Z,100046.92
2019-03-11T19:13:09.748Z,100056.02
2019-03-11T19:15:41.003Z,100054.17
2019-03-11T19:18:12.306Z,100078.17
2019-03-11T19:20:43.581Z,100077.47
2019-03-11T19:23:16.219Z,100079.88
2019-03-11T19:25:47.216Z,100080.06
2019-03-11T19:28:18.824Z,100091.36
2019-03-11T19:30:50.213Z,100087.66
2019-03-11T19:33:21.589Z,100076.78
2019-03-11T19:35:52.727Z,100107.25
2019-03-11T19:38:23.977Z,100104.02
2019-03-11T19:40:55.094Z,100117.02
2019-03-11T19:43:26.369Z,100097.15
2019-03-11T19:46:01.544Z,100102.86
2019-03-11T19:48:35.678Z,100103.24
2019-03-11T19:51:06.972Z,100125.23
2019-03-11T19:53:40.620Z,100113.52
2019-03-11T19:56:13.122Z,100118.44
2019-03-11T19:58:44.370Z,100120.41
2019-03-11T20:01:15.657Z,100122.77
2019-03-11T20:03:50.007Z,100144.40
2019-03-11T20:06:21.186Z,100125.37
2019-03-11T20:08:52.554Z,100133.20
2019-03-11T20:11:25.094Z,100110.52
2019-03-11T20:13:57.640Z,100144.27
2019-03-11T20:16:28.982Z,100141.67
2019-03-11T20:19:00.381Z,100145.05
2019-03-11T20:21:32.472Z,100150.11
2019-03-11T20:24:06.496Z,100145.44
2019-03-11T20:26:37.723Z,100154.80
2019-03-11T20:29:09.117Z,100164.57
2019-03-11T20:31:40.303Z,100163.80
2019-03-11T20:34:11.666Z,100154.80
2019-03-11T20:36:46.470Z,100167.58
2019-03-11T20:39:20.246Z,100166.27
2019-03-11T20:41:52.223Z,100166.77
2019-03-11T20:44:23.878Z,100164.00
2019-03-11T20:46:55.412Z,100166.41
2019-03-11T20:49:26.925Z,100150.22
2019-03-11T20:52:03.461Z,100153.07
2019-03-11T20:54:35.062Z,100151.23
2019-03-11T20:57:06.670Z,100168.47
2019-03-11T20:59:38.277Z,100162.61
2019-03-11T21:02:09.695Z,100165.30
2019-03-11T21:04:40.973Z,100169.27
2019-03-11T21:07:12.674Z,100172.25
2019-03-11T21:09:43.701Z,100162.00
2019-03-11T21:12:15.041Z,100168.62
2019-03-11T21:14:46.777Z,100189.95
2019-03-11T21:17:25.739Z,100191.42
2019-03-11T21:19:51.623Z,100183.87
2019-03-11T21:22:23.248Z,100183.87
2019-03-11T21:24:59.624Z,100185.86
2019-03-11T21:27:27.947Z,100194.11
2019-03-11T21:29:59.566Z,100207.84
2019-03-11T21:32:31.090Z,100187.98
2019-03-11T21:35:02.697Z,100203.34
2019-03-11T21:37:34.315Z,100195.20
2019-03-11T21:40:09.064Z,100189.33
2019-03-11T21:42:41.549Z,100202.17
2019-03-11T21:45:14.997Z,100224.02
2019-03-11T21:47:47.056Z,100218.20
2019-03-11T21:50:23.781Z,100222.98
2019-03-11T21:52:55.415Z,100231.75
2019-03-11T21:55:30.118Z,100234.36
2019-03-11T21:58:12.577Z,100235.36
2019-03-11T22:00:36.059Z,100235.94
2019-03-11T22:03:07.286Z,100252.09
2019-03-11T22:05:38.528Z,100270.86
2019-03-11T22:08:09.863Z,100263.21
2019-03-11T22:10:41.087Z,100258.77
2019-03-11T22:13:12.320Z,100245.84
2019-03-11T22:15:43.633Z,100235.59
2019-03-11T22:18:16.611Z,100243.70
2019-03-11T22:20:54.576Z,100261.09
2019-03-11T22:23:26.861Z,100270.09
2019-03-11T22:25:58.337Z,100288.31
2019-03-11T22:28:29.749Z,100290.16
2019-03-11T22:31:01.203Z,100301.02
2019-03-11T22:33:34.975Z,100298.52
2019-03-11T22:36:06.356Z,100296.35
2019-03-11T22:38:37.685Z,100292.77
2019-03-11T22:41:09.066Z,100295.98
2019-03-11T22:43:41.125Z,100306.55
2019-03-11T22:46:12.527Z,100323.03
2019-03-11T22:48:43.776Z,100316.89
2019-03-11T22:51:15.010Z,100322.23
2019-03-11T22:53:46.577Z,100322.82
2019-03-11T22:56:17.840Z,100325.95
2019-03-11T22:58:48.975Z,100332.93
2019-03-11T23:01:23.383Z,100330.27
2019-03-11T23:03:54.716Z,100331.55
2019-03-11T23:06:28.119Z,100336.19
2019-03-11T23:08:59.230Z,100341.94
2019-03-11T23:11:30.631Z,100337.45
2019-03-11T23:14:01.954Z,100340.25
2019-03-11T23:16:33.228Z,100337.07
2019-03-11T23:19:04.684Z,100338.91
2019-03-11T23:21:36.059Z,100341.01
2019-03-11T23:24:07.369Z,100352.41
2019-03-11T23:26:38.837Z,100353.05
2019-03-11T23:29:10.334Z,100357.69
2019-03-11T23:31:41.544Z,100361.85
2019-03-11T23:34:12.810Z,100362.64
2019-03-11T23:36:44.245Z,100361.85
2019-03-11T23:39:15.468Z,100363.77
2019-03-11T23:41:46.900Z,100367.52
2019-03-11T23:44:18.299Z,100364.91
2019-03-11T23:46:49.432Z,100372.00
2019-03-11T23:49:20.513Z,100378.46
2019-03-11T23:51:51.797Z,100374.66
2019-03-11T23:54:22.945Z,100392.20
2019-03-11T23:56:54.009Z,100389.23
2019-03-11T23:59:25.108Z,100394.85
